Kensington, New Hampshire
Current Conditions -  °F | °C
As of 4:24 AM on Sunday 23 Nov 2014 (Local Time) from KPSM Reporting Station
Overcast Overcast  
Wind Chill: 36°   Ceiling: 10000
Heat Index: 41°   Visibility: 10mi
Dew Point: 28°   Wind: 7mph
Humidity: 61%   Direction: 220°SW
Pressure: 30.02"   Gusts: NA
Location:  42.9832°N, 70.9915°W
Report Text: KPSM 230924Z 22006KT 10SM BKN100 OVC130 05/M02 A3002
Loading
Personal Weather Stations






























Interactive Weather Map New forecast layout! Learn more

10-Day Weather Forecast

Advertisements
Track Severe Weather on mobile